createdAt,value
2019-05-13T00:00:03.736Z,0.00
2019-05-13T00:01:07.023Z,0.00
2019-05-13T00:02:04.549Z,0.00
2019-05-13T00:03:03.655Z,0.00
2019-05-13T00:04:03.623Z,0.00
2019-05-13T00:05:03.899Z,0.00
2019-05-13T00:06:04.224Z,0.00
2019-05-13T00:07:04.674Z,0.00
2019-05-13T00:08:03.455Z,0.00
2019-05-13T00:09:03.516Z,0.00
2019-05-13T00:10:04.052Z,0.00
2019-05-13T00:11:04.398Z,0.00
2019-05-13T00:12:04.774Z,0.00
2019-05-13T00:13:04.517Z,0.00
2019-05-13T00:14:04.420Z,0.00
2019-05-13T00:15:03.741Z,0.00
2019-05-13T00:16:03.676Z,0.00
2019-05-13T00:17:04.200Z,0.00
2019-05-13T00:18:03.873Z,0.00
2019-05-13T00:19:04.134Z,0.00
2019-05-13T00:20:03.936Z,0.00
2019-05-13T00:21:03.643Z,0.00
2019-05-13T00:22:03.822Z,0.00
2019-05-13T00:23:03.993Z,0.00
2019-05-13T00:24:04.133Z,0.00
2019-05-13T00:25:04.004Z,0.00
2019-05-13T00:26:03.839Z,0.00
2019-05-13T00:27:03.895Z,0.00
2019-05-13T00:28:04.107Z,0.00
2019-05-13T00:29:04.121Z,0.00
2019-05-13T00:30:04.297Z,0.00
2019-05-13T00:31:03.452Z,0.00
2019-05-13T00:32:04.737Z,0.00
2019-05-13T00:33:03.857Z,0.00
2019-05-13T00:34:03.693Z,0.00
2019-05-13T00:35:03.934Z,0.00
2019-05-13T00:36:04.074Z,0.00
2019-05-13T00:37:08.895Z,0.00
2019-05-13T00:38:03.791Z,0.00
2019-05-13T00:39:03.902Z,0.00
2019-05-13T00:40:03.982Z,0.00
2019-05-13T00:41:03.711Z,0.00
2019-05-13T00:42:04.064Z,0.00
2019-05-13T00:43:03.815Z,0.00
2019-05-13T00:44:03.854Z,0.00
2019-05-13T00:45:03.999Z,0.00
2019-05-13T00:46:03.874Z,0.00
2019-05-13T00:47:04.460Z,0.00
2019-05-13T00:48:04.642Z,0.00
2019-05-13T00:49:04.566Z,0.00
2019-05-13T00:50:03.685Z,0.00
2019-05-13T00:51:03.778Z,0.00
2019-05-13T00:52:03.836Z,0.00
2019-05-13T00:53:04.343Z,0.00
2019-05-13T00:54:04.370Z,0.00
2019-05-13T00:55:04.228Z,0.00
2019-05-13T00:56:04.056Z,0.00
2019-05-13T00:57:04.212Z,0.00
2019-05-13T00:58:04.300Z,0.00
2019-05-13T00:59:03.678Z,0.00
2019-05-13T01:00:03.504Z,0.00
2019-05-13T01:01:03.590Z,0.00
2019-05-13T01:02:03.625Z,0.00
2019-05-13T01:03:04.127Z,0.00
2019-05-13T01:04:03.996Z,0.00
2019-05-13T01:05:04.275Z,0.00
2019-05-13T01:06:04.283Z,0.00
2019-05-13T01:07:04.410Z,0.00
2019-05-13T01:08:04.346Z,0.00
2019-05-13T01:09:04.144Z,0.00
2019-05-13T01:10:04.214Z,0.00
2019-05-13T01:11:04.292Z,0.00
2019-05-13T01:12:04.468Z,0.00
2019-05-13T01:13:04.649Z,0.00
2019-05-13T01:14:04.297Z,0.00
2019-05-13T01:15:04.087Z,0.00
2019-05-13T01:16:03.676Z,0.00
2019-05-13T01:17:03.838Z,0.00
2019-05-13T01:18:03.907Z,0.00
2019-05-13T01:19:04.189Z,0.00
2019-05-13T01:20:04.121Z,0.00
2019-05-13T01:21:04.213Z,0.00
2019-05-13T01:22:03.394Z,0.00
2019-05-13T01:23:03.551Z,0.00
2019-05-13T01:24:03.713Z,0.00
2019-05-13T01:25:03.948Z,0.00
2019-05-13T01:26:03.938Z,0.00
2019-05-13T01:27:03.895Z,0.00
2019-05-13T01:28:04.242Z,0.00
2019-05-13T01:29:04.087Z,0.00
2019-05-13T01:30:04.099Z,0.00
2019-05-13T01:31:04.143Z,0.00
2019-05-13T01:32:04.257Z,0.00
2019-05-13T01:33:04.233Z,0.00
2019-05-13T01:34:04.048Z,0.00
2019-05-13T01:35:04.445Z,0.00
2019-05-13T01:36:04.985Z,0.00
2019-05-13T01:37:04.130Z,0.00
2019-05-13T01:38:04.242Z,0.00
2019-05-13T01:39:04.162Z,0.00
2019-05-13T01:40:04.907Z,0.00
2019-05-13T01:41:04.259Z,0.00
2019-05-13T01:42:03.658Z,0.00
2019-05-13T01:43:03.540Z,0.00
2019-05-13T01:44:03.958Z,0.00
2019-05-13T01:45:04.478Z,0.00
2019-05-13T01:46:04.220Z,0.00
2019-05-13T01:47:04.251Z,0.00
2019-05-13T01:48:06.306Z,0.00
2019-05-13T01:49:04.888Z,0.00
2019-05-13T01:50:03.980Z,0.00
2019-05-13T01:51:03.849Z,0.00
2019-05-13T01:52:03.702Z,0.00
2019-05-13T01:53:04.183Z,0.00
2019-05-13T01:54:03.972Z,0.00
2019-05-13T01:55:04.022Z,0.00
2019-05-13T01:56:03.877Z,0.00
2019-05-13T01:57:04.119Z,0.00
2019-05-13T01:58:04.175Z,0.00
2019-05-13T01:59:03.616Z,0.00
2019-05-13T02:00:04.530Z,0.00
2019-05-13T02:01:01.747Z,0.00
2019-05-13T02:02:03.490Z,0.00
2019-05-13T02:03:03.893Z,0.00
2019-05-13T02:04:03.936Z,0.00
2019-05-13T02:05:03.743Z,0.00
2019-05-13T02:06:03.800Z,0.00
2019-05-13T02:07:04.142Z,0.00
2019-05-13T02:08:03.996Z,0.00
2019-05-13T02:09:03.834Z,0.00
2019-05-13T02:10:04.128Z,0.00
2019-05-13T02:11:04.014Z,0.00
2019-05-13T02:12:04.242Z,0.00
2019-05-13T02:13:03.839Z,0.00
2019-05-13T02:14:01.606Z,0.00
2019-05-13T02:15:04.207Z,0.00
2019-05-13T02:16:03.900Z,0.00
2019-05-13T02:17:03.954Z,0.00
2019-05-13T02:18:03.872Z,0.00
2019-05-13T02:19:03.899Z,0.00
2019-05-13T02:20:03.901Z,0.00
2019-05-13T02:21:04.855Z,0.00
2019-05-13T02:22:03.678Z,0.00
2019-05-13T02:23:03.848Z,0.00
2019-05-13T02:24:04.221Z,0.00
2019-05-13T02:25:04.154Z,0.00
2019-05-13T02:26:01.431Z,0.00
2019-05-13T02:27:03.634Z,0.00
2019-05-13T02:28:08.745Z,0.00
2019-05-13T02:29:03.662Z,0.00
2019-05-13T02:30:05.177Z,0.00
2019-05-13T02:31:01.389Z,0.00
2019-05-13T02:32:02.785Z,0.00
2019-05-13T02:33:02.753Z,0.00
2019-05-13T02:34:02.454Z,0.00
2019-05-13T02:35:02.709Z,0.00
2019-05-13T02:36:03.004Z,0.00
2019-05-13T02:37:03.337Z,0.00
2019-05-13T02:38:18.421Z,0.00
2019-05-13T02:39:02.507Z,0.00
2019-05-13T02:40:03.444Z,0.00
2019-05-13T02:41:02.825Z,0.00
2019-05-13T02:42:03.587Z,0.00
2019-05-13T02:43:02.902Z,0.00
2019-05-13T02:44:03.582Z,0.00
2019-05-13T02:45:03.772Z,0.00
2019-05-13T02:46:04.135Z,0.00
2019-05-13T02:47:03.464Z,0.00
2019-05-13T02:48:03.241Z,0.00
2019-05-13T02:49:03.265Z,0.00
2019-05-13T02:50:04.824Z,0.00
2019-05-13T02:51:03.669Z,0.00
2019-05-13T02:52:02.743Z,0.00
2019-05-13T02:53:02.404Z,0.00
2019-05-13T02:54:03.515Z,0.00
2019-05-13T02:55:03.969Z,0.00
2019-05-13T02:56:03.016Z,0.00
2019-05-13T02:57:03.677Z,0.00
2019-05-13T02:58:03.197Z,0.00
2019-05-13T02:59:03.874Z,0.00
2019-05-13T03:00:04.162Z,0.00
2019-05-13T03:01:03.179Z,0.00
2019-05-13T03:02:03.713Z,0.00
2019-05-13T03:03:03.199Z,0.00
2019-05-13T03:04:03.061Z,0.00
2019-05-13T03:05:03.222Z,0.00
2019-05-13T03:06:02.880Z,0.00
2019-05-13T03:07:02.969Z,0.00
2019-05-13T03:08:03.338Z,0.00
2019-05-13T03:09:03.137Z,0.00
2019-05-13T03:10:04.266Z,0.00
2019-05-13T03:11:03.002Z,0.00
2019-05-13T03:12:04.200Z,0.00
2019-05-13T03:13:03.546Z,0.00
2019-05-13T03:14:03.581Z,0.00
2019-05-13T03:15:02.755Z,0.00
2019-05-13T03:16:02.959Z,0.00
2019-05-13T03:17:03.139Z,0.00
2019-05-13T03:18:03.416Z,0.00
2019-05-13T03:19:02.824Z,0.00
2019-05-13T03:20:03.997Z,0.00
2019-05-13T03:21:03.298Z,0.00
2019-05-13T03:22:03.104Z,0.00
2019-05-13T03:23:02.969Z,0.00
2019-05-13T03:24:03.591Z,0.00
2019-05-13T03:25:03.173Z,0.00
2019-05-13T03:26:02.819Z,0.00
2019-05-13T03:27:02.453Z,0.00
2019-05-13T03:28:03.200Z,0.00
2019-05-13T03:29:02.817Z,0.00
2019-05-13T03:30:04.186Z,0.00
2019-05-13T03:31:06.799Z,0.00
2019-05-13T03:32:05.557Z,0.00
2019-05-13T03:33:09.034Z,0.00
2019-05-13T03:34:05.747Z,0.00
2019-05-13T03:35:06.417Z,0.00
2019-05-13T03:36:06.412Z,0.00
2019-05-13T03:37:05.466Z,0.00
2019-05-13T03:38:03.361Z,0.00
2019-05-13T03:39:06.999Z,0.00
2019-05-13T03:40:03.401Z,0.00
2019-05-13T03:41:03.227Z,0.00
2019-05-13T03:42:02.914Z,0.00
2019-05-13T03:43:02.789Z,0.00
2019-05-13T03:44:02.546Z,0.00
2019-05-13T03:45:02.974Z,0.00
2019-05-13T03:46:03.397Z,0.00
2019-05-13T03:47:03.487Z,0.00
2019-05-13T03:48:04.256Z,0.00
2019-05-13T03:49:02.474Z,0.00
2019-05-13T03:50:03.453Z,0.00
2019-05-13T03:51:02.742Z,0.00
2019-05-13T03:52:02.921Z,0.00
2019-05-13T03:53:03.069Z,0.00
2019-05-13T03:54:03.181Z,0.00
2019-05-13T03:55:03.168Z,0.00
2019-05-13T03:56:02.461Z,0.00
2019-05-13T03:57:03.536Z,0.00
2019-05-13T03:58:03.060Z,0.00
2019-05-13T03:59:02.671Z,0.00
2019-05-13T04:00:03.498Z,0.00
2019-05-13T04:01:02.870Z,0.00
2019-05-13T04:02:02.555Z,0.00
2019-05-13T04:03:03.163Z,0.00
2019-05-13T04:04:03.253Z,0.00
2019-05-13T04:05:03.758Z,0.00
2019-05-13T04:06:03.570Z,5.62
2019-05-13T04:07:02.650Z,5.62
2019-05-13T04:08:03.159Z,5.62
2019-05-13T04:09:17.245Z,5.62
2019-05-13T04:10:03.286Z,5.62
2019-05-13T04:11:02.915Z,5.62
2019-05-13T04:12:03.156Z,5.62
2019-05-13T04:13:03.456Z,5.62
2019-05-13T04:14:03.327Z,5.62
2019-05-13T04:15:03.428Z,5.62
2019-05-13T04:16:03.554Z,5.62
2019-05-13T04:17:02.889Z,5.62
2019-05-13T04:18:02.703Z,5.62
2019-05-13T04:19:02.602Z,5.62
2019-05-13T04:20:02.737Z,5.62
2019-05-13T04:21:02.704Z,11.25
2019-05-13T04:22:02.350Z,11.25
2019-05-13T04:23:02.984Z,11.25
2019-05-13T04:24:03.715Z,11.25
2019-05-13T04:25:02.524Z,11.25
2019-05-13T04:26:03.081Z,11.25
2019-05-13T04:27:02.862Z,11.25
2019-05-13T04:28:03.226Z,11.25
2019-05-13T04:29:03.052Z,11.25
2019-05-13T04:30:03.273Z,16.88
2019-05-13T04:31:02.427Z,16.88
2019-05-13T04:32:02.214Z,16.88
2019-05-13T04:33:02.407Z,16.88
2019-05-13T04:34:02.301Z,16.88
2019-05-13T04:35:03.367Z,16.88
2019-05-13T04:36:02.538Z,16.88
2019-05-13T04:37:02.499Z,16.88
2019-05-13T04:38:02.459Z,16.88
2019-05-13T04:39:03.016Z,16.88
2019-05-13T04:40:03.390Z,22.50
2019-05-13T04:41:03.150Z,22.50
2019-05-13T04:42:02.354Z,22.50
2019-05-13T04:43:02.873Z,22.50
2019-05-13T04:44:02.574Z,22.50
2019-05-13T04:45:02.940Z,22.50
2019-05-13T04:46:02.363Z,22.50
2019-05-13T04:47:03.214Z,22.50
2019-05-13T04:48:02.946Z,22.50
2019-05-13T04:49:02.246Z,22.50
2019-05-13T04:50:02.871Z,28.12
2019-05-13T04:51:02.678Z,28.12
2019-05-13T04:52:03.293Z,28.12
2019-05-13T04:53:03.023Z,28.12
2019-05-13T04:54:02.723Z,28.12
2019-05-13T04:55:02.990Z,33.75
2019-05-13T04:56:02.814Z,33.75
2019-05-13T04:57:02.673Z,33.75
2019-05-13T04:58:03.147Z,33.75
2019-05-13T04:59:02.771Z,33.75
2019-05-13T05:00:03.734Z,33.75
2019-05-13T05:01:04.812Z,39.38
2019-05-13T05:02:04.662Z,39.38
2019-05-13T05:03:03.106Z,39.38
2019-05-13T05:04:03.121Z,39.38
2019-05-13T05:05:02.986Z,33.75
2019-05-13T05:06:02.983Z,33.75
2019-05-13T05:07:02.320Z,33.75
2019-05-13T05:08:02.914Z,33.75
2019-05-13T05:09:03.038Z,33.75
2019-05-13T05:10:17.664Z,33.75
2019-05-13T05:11:02.480Z,39.38
2019-05-13T05:12:02.151Z,39.38
2019-05-13T05:13:02.166Z,39.38
2019-05-13T05:14:02.508Z,39.38
2019-05-13T05:15:02.631Z,39.38
2019-05-13T05:16:02.634Z,39.38
2019-05-13T05:16:59.529Z,39.38
2019-05-13T05:18:02.595Z,39.38
2019-05-13T05:19:02.135Z,39.38
2019-05-13T05:20:03.196Z,39.38
2019-05-13T05:21:01.500Z,33.75
2019-05-13T05:22:02.427Z,33.75
2019-05-13T05:23:01.773Z,33.75
2019-05-13T05:24:01.851Z,28.12
2019-05-13T05:25:01.547Z,28.12
2019-05-13T05:26:01.240Z,28.12
2019-05-13T05:27:01.427Z,28.12
2019-05-13T05:28:01.976Z,22.50
2019-05-13T05:28:59.391Z,22.50
2019-05-13T05:30:01.885Z,28.12
2019-05-13T05:30:59.387Z,28.12
2019-05-13T05:32:01.337Z,28.12
2019-05-13T05:33:02.018Z,28.12
2019-05-13T05:33:59.335Z,33.75
2019-05-13T05:35:01.173Z,33.75
2019-05-13T05:36:01.698Z,33.75
2019-05-13T05:37:01.397Z,33.75
2019-05-13T05:38:01.477Z,28.12
2019-05-13T05:39:01.590Z,28.12
2019-05-13T05:40:01.742Z,22.50
2019-05-13T05:41:01.549Z,22.50
2019-05-13T05:41:59.278Z,22.50
2019-05-13T05:42:59.258Z,28.12
2019-05-13T05:44:02.186Z,33.75
2019-05-13T05:44:59.213Z,33.75
2019-05-13T05:46:01.635Z,39.38
2019-05-13T05:47:02.014Z,45.00
2019-05-13T05:48:01.497Z,45.00
2019-05-13T05:48:59.191Z,50.62
2019-05-13T05:49:59.159Z,45.00
2019-05-13T05:51:01.999Z,50.62
2019-05-13T05:52:01.550Z,50.62
2019-05-13T05:52:59.171Z,56.25
2019-05-13T05:53:59.137Z,61.88
2019-05-13T05:54:59.117Z,61.88
2019-05-13T05:55:59.506Z,61.88
2019-05-13T05:57:01.149Z,61.88
2019-05-13T05:58:01.465Z,61.88
2019-05-13T05:59:02.542Z,67.50
2019-05-13T05:59:59.065Z,67.50
2019-05-13T06:00:59.077Z,67.50
2019-05-13T06:02:01.717Z,67.50
2019-05-13T06:03:02.306Z,67.50
2019-05-13T06:04:01.392Z,73.12
2019-05-13T06:04:59.015Z,67.50
2019-05-13T06:05:58.996Z,67.50
2019-05-13T06:06:58.997Z,67.50
2019-05-13T06:07:58.969Z,67.50
2019-05-13T06:08:58.968Z,67.50
2019-05-13T06:09:58.957Z,67.50
2019-05-13T06:11:00.747Z,67.50
2019-05-13T06:11:58.935Z,73.12
2019-05-13T06:12:58.935Z,84.38
2019-05-13T06:13:58.939Z,95.62
2019-05-13T06:14:58.911Z,90.00
2019-05-13T06:15:58.879Z,90.00
2019-05-13T06:16:58.917Z,90.00
2019-05-13T06:17:58.896Z,90.00
2019-05-13T06:19:01.260Z,95.62
2019-05-13T06:19:58.842Z,101.25
2019-05-13T06:20:58.875Z,106.88
2019-05-13T06:21:58.813Z,95.62
2019-05-13T06:22:58.814Z,84.38
2019-05-13T06:23:58.822Z,73.12
2019-05-13T06:25:01.273Z,67.50
2019-05-13T06:25:58.769Z,67.50
2019-05-13T06:27:01.284Z,67.50
2019-05-13T06:27:58.739Z,61.88
2019-05-13T06:28:58.752Z,61.88
2019-05-13T06:29:58.728Z,61.88
2019-05-13T06:30:58.751Z,56.25
2019-05-13T06:32:14.051Z,56.25
2019-05-13T06:33:01.612Z,50.62
2019-05-13T06:33:58.691Z,56.25
2019-05-13T06:35:01.263Z,56.25
2019-05-13T06:36:01.039Z,61.88
2019-05-13T06:36:58.684Z,67.50
2019-05-13T06:37:58.646Z,56.25
2019-05-13T06:38:58.638Z,50.62
2019-05-13T06:39:58.617Z,50.62
2019-05-13T06:41:03.542Z,50.62
2019-05-13T06:41:58.627Z,50.62
2019-05-13T06:42:58.617Z,50.62
2019-05-13T06:43:58.565Z,45.00
2019-05-13T06:44:58.642Z,50.62
2019-05-13T06:45:58.559Z,56.25
2019-05-13T06:46:58.547Z,56.25
2019-05-13T06:47:58.545Z,61.88
2019-05-13T06:48:58.508Z,67.50
2019-05-13T06:49:58.522Z,67.50
2019-05-13T06:50:58.487Z,67.50
2019-05-13T06:51:58.495Z,73.12
2019-05-13T06:52:58.482Z,84.38
2019-05-13T06:53:58.474Z,84.38
2019-05-13T06:54:58.441Z,84.38
2019-05-13T06:55:58.441Z,90.00
2019-05-13T06:56:58.424Z,95.62
2019-05-13T06:57:58.419Z,101.25
2019-05-13T06:58:58.415Z,112.50
2019-05-13T06:59:58.430Z,118.12
2019-05-13T07:00:58.897Z,123.75
2019-05-13T07:01:58.361Z,123.75
2019-05-13T07:02:58.373Z,112.50
2019-05-13T07:03:58.355Z,95.62
2019-05-13T07:04:58.345Z,90.00
2019-05-13T07:05:58.356Z,90.00
2019-05-13T07:07:09.859Z,95.62
2019-05-13T07:07:58.300Z,95.62
2019-05-13T07:08:58.314Z,101.25
2019-05-13T07:09:58.295Z,106.88
2019-05-13T07:10:58.290Z,106.88
2019-05-13T07:11:58.379Z,101.25
2019-05-13T07:12:58.239Z,95.62
2019-05-13T07:13:58.226Z,95.62
2019-05-13T07:14:58.219Z,90.00
2019-05-13T07:15:58.259Z,95.62
2019-05-13T07:16:58.245Z,101.25
2019-05-13T07:17:58.185Z,101.25
2019-05-13T07:18:58.202Z,101.25
2019-05-13T07:19:58.164Z,95.62
2019-05-13T07:21:01.978Z,90.00
2019-05-13T07:21:58.171Z,84.38
2019-05-13T07:22:58.145Z,78.75
2019-05-13T07:23:58.118Z,78.75
2019-05-13T07:24:58.103Z,84.38
2019-05-13T07:25:58.092Z,84.38
2019-05-13T07:26:58.120Z,78.75
2019-05-13T07:27:58.085Z,67.50
2019-05-13T07:28:58.554Z,61.88
2019-05-13T07:29:58.052Z,56.25
2019-05-13T07:30:58.045Z,56.25
2019-05-13T07:31:58.049Z,56.25
2019-05-13T07:32:58.027Z,56.25
2019-05-13T07:33:58.022Z,61.88
2019-05-13T07:34:58.021Z,61.88
2019-05-13T07:35:58.642Z,61.88
2019-05-13T07:36:57.973Z,61.88
2019-05-13T07:37:57.983Z,61.88
2019-05-13T07:38:57.976Z,56.25
2019-05-13T07:39:57.949Z,56.25
2019-05-13T07:40:57.927Z,56.25
2019-05-13T07:41:57.919Z,56.25
2019-05-13T07:42:57.919Z,61.88
2019-05-13T07:43:57.898Z,61.88
2019-05-13T07:44:57.891Z,61.88
2019-05-13T07:45:57.889Z,61.88
2019-05-13T07:46:57.887Z,61.88
2019-05-13T07:47:57.875Z,61.88
2019-05-13T07:48:57.866Z,67.50
2019-05-13T07:49:57.831Z,78.75
2019-05-13T07:51:00.454Z,84.38
2019-05-13T07:51:57.825Z,84.38
2019-05-13T07:52:57.835Z,90.00
2019-05-13T07:53:57.781Z,95.62
2019-05-13T07:54:57.776Z,101.25
2019-05-13T07:55:57.767Z,118.12
2019-05-13T07:56:57.773Z,135.00
2019-05-13T07:57:57.759Z,140.62
2019-05-13T07:58:57.756Z,140.62
2019-05-13T07:59:57.719Z,135.00
2019-05-13T08:00:57.727Z,135.00
2019-05-13T08:01:57.713Z,129.38
2019-05-13T08:02:57.695Z,118.12
2019-05-13T08:03:57.687Z,118.12
2019-05-13T08:04:57.655Z,118.12
2019-05-13T08:05:57.648Z,112.50
2019-05-13T08:06:57.639Z,112.50
2019-05-13T08:07:57.642Z,112.50
2019-05-13T08:08:57.644Z,118.12
2019-05-13T08:10:00.236Z,118.12
2019-05-13T08:10:57.592Z,129.38
2019-05-13T08:12:08.664Z,135.00
2019-05-13T08:12:57.573Z,140.62
2019-05-13T08:13:57.569Z,140.62
2019-05-13T08:14:57.587Z,146.25
2019-05-13T08:15:57.531Z,140.62
2019-05-13T08:16:57.525Z,135.00
2019-05-13T08:17:57.509Z,135.00
2019-05-13T08:18:57.505Z,135.00
2019-05-13T08:19:57.520Z,146.25
2019-05-13T08:20:57.499Z,135.00
2019-05-13T08:21:57.472Z,140.62
2019-05-13T08:22:57.470Z,146.25
2019-05-13T08:23:57.449Z,146.25
2019-05-13T08:24:57.485Z,129.38
2019-05-13T08:25:57.459Z,123.75
2019-05-13T08:26:57.442Z,118.12
2019-05-13T08:27:57.404Z,106.88
2019-05-13T08:29:01.940Z,112.50
2019-05-13T08:29:57.379Z,129.38
2019-05-13T08:30:57.394Z,129.38
2019-05-13T08:31:57.371Z,123.75
2019-05-13T08:32:57.384Z,123.75
2019-05-13T08:33:57.337Z,129.38
2019-05-13T08:35:02.022Z,129.38
2019-05-13T08:35:58.833Z,129.38
2019-05-13T08:36:57.616Z,123.75
2019-05-13T08:37:57.304Z,118.12
2019-05-13T08:38:57.307Z,101.25
2019-05-13T08:39:57.267Z,84.38
2019-05-13T08:40:57.258Z,90.00
2019-05-13T08:42:11.805Z,90.00
2019-05-13T08:42:57.247Z,106.88
2019-05-13T08:43:57.241Z,123.75
2019-05-13T08:44:57.222Z,123.75
2019-05-13T08:45:57.238Z,112.50
2019-05-13T08:46:57.190Z,112.50
2019-05-13T08:47:57.176Z,123.75
2019-05-13T08:48:57.185Z,123.75
2019-05-13T08:50:00.334Z,129.38
2019-05-13T08:50:58.198Z,123.75
2019-05-13T08:51:57.133Z,118.12
2019-05-13T08:52:57.123Z,129.38
2019-05-13T08:53:57.107Z,118.12
2019-05-13T08:54:57.100Z,129.38
2019-05-13T08:55:57.110Z,129.38
2019-05-13T08:56:57.081Z,123.75
2019-05-13T08:57:57.077Z,129.38
2019-05-13T08:58:57.054Z,129.38
2019-05-13T08:59:57.045Z,123.75
2019-05-13T09:00:59.182Z,118.12
2019-05-13T09:01:57.153Z,106.88
2019-05-13T09:02:57.012Z,101.25
2019-05-13T09:03:57.015Z,84.38
2019-05-13T09:04:56.990Z,78.75
2019-05-13T09:05:56.977Z,73.12
2019-05-13T09:06:57.034Z,73.12
2019-05-13T09:07:56.986Z,73.12
2019-05-13T09:08:56.941Z,61.88
2019-05-13T09:09:56.950Z,56.25
2019-05-13T09:10:57.375Z,56.25
2019-05-13T09:11:56.936Z,45.00
2019-05-13T09:12:56.907Z,39.38
2019-05-13T09:13:56.907Z,39.38
2019-05-13T09:14:56.872Z,45.00
2019-05-13T09:15:56.858Z,45.00
2019-05-13T09:16:56.885Z,45.00
2019-05-13T09:17:56.854Z,50.62
2019-05-13T09:18:56.852Z,50.62
2019-05-13T09:19:56.855Z,45.00
2019-05-13T09:20:56.815Z,39.38
2019-05-13T09:21:56.806Z,39.38
2019-05-13T09:22:56.799Z,45.00
2019-05-13T09:23:56.795Z,45.00
2019-05-13T09:24:56.776Z,45.00
2019-05-13T09:25:56.793Z,45.00
2019-05-13T09:26:56.740Z,45.00
2019-05-13T09:27:56.738Z,45.00
2019-05-13T09:28:56.724Z,45.00
2019-05-13T09:29:56.714Z,45.00
2019-05-13T09:30:56.715Z,45.00
2019-05-13T09:31:56.687Z,45.00
2019-05-13T09:32:56.736Z,45.00
2019-05-13T09:33:56.657Z,45.00
2019-05-13T09:34:56.664Z,50.62
2019-05-13T09:35:56.650Z,56.25
2019-05-13T09:36:56.654Z,67.50
2019-05-13T09:37:56.611Z,78.75
2019-05-13T09:38:56.608Z,73.12
2019-05-13T09:39:56.611Z,78.75
2019-05-13T09:40:56.593Z,67.50
2019-05-13T09:41:56.583Z,50.62
2019-05-13T09:42:56.557Z,45.00
2019-05-13T09:43:56.548Z,50.62
2019-05-13T09:44:56.551Z,61.88
2019-05-13T09:45:56.552Z,73.12
2019-05-13T09:46:56.545Z,67.50
2019-05-13T09:47:56.516Z,50.62
2019-05-13T09:49:11.736Z,39.38
2019-05-13T09:49:57.481Z,50.62
2019-05-13T09:50:56.464Z,56.25
2019-05-13T09:51:56.455Z,73.12
2019-05-13T09:52:56.463Z,84.38
2019-05-13T09:53:56.460Z,101.25
2019-05-13T09:54:56.423Z,84.38
2019-05-13T09:55:56.407Z,73.12
2019-05-13T09:56:56.408Z,73.12
2019-05-13T09:57:56.398Z,78.75
2019-05-13T09:58:56.441Z,67.50
2019-05-13T09:59:56.381Z,67.50
2019-05-13T10:00:56.364Z,56.25
2019-05-13T10:01:56.398Z,61.88
2019-05-13T10:02:56.348Z,61.88
2019-05-13T10:03:58.193Z,73.12
2019-05-13T10:04:56.325Z,78.75
2019-05-13T10:05:56.339Z,84.38
2019-05-13T10:06:56.289Z,90.00
2019-05-13T10:07:56.277Z,84.38
2019-05-13T10:08:56.287Z,95.62
2019-05-13T10:09:56.263Z,95.62
2019-05-13T10:10:56.263Z,73.12
2019-05-13T10:11:56.270Z,61.88
2019-05-13T10:13:07.994Z,67.50
2019-05-13T10:13:56.236Z,56.25
2019-05-13T10:14:56.203Z,45.00
2019-05-13T10:15:56.202Z,45.00
2019-05-13T10:16:56.198Z,45.00
2019-05-13T10:17:56.226Z,56.25
2019-05-13T10:18:56.210Z,56.25
2019-05-13T10:19:56.158Z,56.25
2019-05-13T10:20:58.445Z,50.62
2019-05-13T10:21:56.139Z,56.25
2019-05-13T10:22:56.128Z,45.00
2019-05-13T10:23:58.733Z,33.75
2019-05-13T10:24:56.136Z,33.75
2019-05-13T10:25:56.101Z,39.38
2019-05-13T10:26:56.089Z,39.38
2019-05-13T10:27:56.055Z,39.38
2019-05-13T10:28:56.087Z,33.75
2019-05-13T10:29:56.080Z,39.38
2019-05-13T10:30:56.035Z,45.00
2019-05-13T10:31:56.007Z,50.62
2019-05-13T10:32:59.445Z,45.00
2019-05-13T10:33:56.011Z,39.38
2019-05-13T10:34:55.994Z,45.00
2019-05-13T10:35:55.967Z,45.00
2019-05-13T10:36:55.966Z,39.38
2019-05-13T10:37:55.940Z,45.00
2019-05-13T10:38:55.934Z,50.62
2019-05-13T10:39:55.931Z,56.25
2019-05-13T10:40:55.961Z,67.50
2019-05-13T10:41:55.893Z,73.12
2019-05-13T10:42:55.953Z,73.12
2019-05-13T10:43:55.905Z,78.75
2019-05-13T10:44:55.872Z,90.00
2019-05-13T10:45:55.884Z,95.62
2019-05-13T10:46:55.870Z,95.62
2019-05-13T10:47:55.859Z,101.25
2019-05-13T10:48:55.844Z,90.00
2019-05-13T10:49:55.832Z,84.38
2019-05-13T10:50:55.807Z,90.00
2019-05-13T10:51:55.796Z,106.88
2019-05-13T10:52:55.804Z,106.88
2019-05-13T10:53:59.398Z,90.00
2019-05-13T10:54:55.771Z,67.50
2019-05-13T10:55:55.736Z,78.75
2019-05-13T10:56:59.474Z,84.38
2019-05-13T10:57:55.738Z,95.62
2019-05-13T10:58:55.707Z,90.00
2019-05-13T10:59:59.665Z,73.12
2019-05-13T11:00:55.683Z,61.88
2019-05-13T11:01:55.693Z,67.50
2019-05-13T11:02:55.674Z,56.25
2019-05-13T11:03:55.673Z,61.88
2019-05-13T11:04:55.639Z,61.88
2019-05-13T11:05:55.705Z,56.25
2019-05-13T11:06:55.617Z,45.00
2019-05-13T11:07:55.610Z,33.75
2019-05-13T11:08:55.619Z,39.38
2019-05-13T11:09:55.615Z,39.38
2019-05-13T11:10:55.576Z,45.00
2019-05-13T11:11:55.597Z,50.62
2019-05-13T11:12:55.562Z,67.50
2019-05-13T11:13:59.360Z,73.12
2019-05-13T11:14:56.559Z,73.12
2019-05-13T11:15:58.252Z,78.75
2019-05-13T11:16:55.502Z,90.00
2019-05-13T11:17:55.511Z,90.00
2019-05-13T11:18:55.496Z,84.38
2019-05-13T11:19:55.499Z,73.12
2019-05-13T11:20:55.470Z,67.50
2019-05-13T11:21:55.557Z,67.50
2019-05-13T11:22:55.450Z,67.50
2019-05-13T11:23:55.427Z,61.88
2019-05-13T11:24:55.449Z,67.50
2019-05-13T11:25:55.414Z,67.50
2019-05-13T11:26:55.409Z,61.88
2019-05-13T11:27:58.339Z,61.88
2019-05-13T11:28:55.368Z,56.25
2019-05-13T11:29:55.378Z,56.25
2019-05-13T11:30:59.607Z,67.50
2019-05-13T11:31:55.354Z,84.38
2019-05-13T11:32:55.376Z,95.62
2019-05-13T11:33:55.311Z,95.62
2019-05-13T11:34:55.306Z,84.38
2019-05-13T11:35:55.288Z,90.00
2019-05-13T11:36:55.279Z,84.38
2019-05-13T11:37:55.299Z,84.38
2019-05-13T11:38:55.298Z,78.75
2019-05-13T11:39:55.243Z,73.12
2019-05-13T11:40:55.232Z,73.12
2019-05-13T11:41:55.221Z,78.75
2019-05-13T11:42:55.263Z,90.00
2019-05-13T11:44:12.117Z,95.62
2019-05-13T11:44:56.194Z,95.62
2019-05-13T11:45:55.176Z,90.00
2019-05-13T11:46:55.164Z,90.00
2019-05-13T11:47:55.168Z,90.00
2019-05-13T11:48:55.165Z,84.38
2019-05-13T11:49:55.148Z,73.12
2019-05-13T11:50:55.150Z,73.12
2019-05-13T11:51:55.121Z,67.50
2019-05-13T11:52:55.115Z,67.50
2019-05-13T11:53:55.087Z,61.88
2019-05-13T11:54:55.093Z,50.62
2019-05-13T11:55:55.095Z,45.00
2019-05-13T11:57:56.061Z,33.75
2019-05-13T11:58:55.042Z,33.75
2019-05-13T11:59:55.024Z,39.38
2019-05-13T12:00:55.034Z,50.62
2019-05-13T12:01:55.028Z,67.50
2019-05-13T12:02:54.987Z,67.50
2019-05-13T12:03:54.992Z,73.12
2019-05-13T12:04:54.965Z,78.75
2019-05-13T12:05:54.958Z,78.75
2019-05-13T12:06:55.056Z,67.50
2019-05-13T12:07:54.961Z,67.50
2019-05-13T12:08:55.552Z,73.12
2019-05-13T12:09:54.917Z,73.12
2019-05-13T12:10:54.958Z,67.50
2019-05-13T12:11:54.897Z,61.88
2019-05-13T12:12:54.911Z,61.88
2019-05-13T12:13:54.897Z,67.50
2019-05-13T12:15:22.389Z,73.12
2019-05-13T12:15:55.887Z,78.75
2019-05-13T12:16:54.838Z,78.75
2019-05-13T12:17:54.832Z,73.12
2019-05-13T12:18:54.855Z,61.88
2019-05-13T12:19:54.817Z,45.00
2019-05-13T12:20:54.791Z,50.62
2019-05-13T12:21:54.817Z,45.00
2019-05-13T12:22:54.772Z,45.00
2019-05-13T12:23:54.771Z,50.62
2019-05-13T12:24:54.761Z,50.62
2019-05-13T12:25:54.770Z,56.25
2019-05-13T12:26:54.724Z,50.62
2019-05-13T12:27:54.709Z,45.00
2019-05-13T12:28:54.706Z,45.00
2019-05-13T12:29:54.716Z,45.00
2019-05-13T12:30:54.695Z,50.62
2019-05-13T12:31:54.734Z,50.62
2019-05-13T12:32:54.662Z,61.88
2019-05-13T12:33:54.688Z,73.12
2019-05-13T12:34:55.175Z,90.00
2019-05-13T12:35:54.637Z,73.12
2019-05-13T12:36:54.630Z,61.88
2019-05-13T12:37:54.635Z,61.88
2019-05-13T12:38:54.663Z,56.25
2019-05-13T12:39:54.657Z,56.25
2019-05-13T12:40:54.576Z,50.62
2019-05-13T12:41:54.627Z,45.00
2019-05-13T12:42:54.559Z,39.38
2019-05-13T12:43:54.534Z,33.75
2019-05-13T12:45:09.444Z,28.12
2019-05-13T12:45:55.553Z,28.12
2019-05-13T12:46:54.690Z,28.12
2019-05-13T12:47:54.496Z,28.12
2019-05-13T12:48:54.515Z,33.75
2019-05-13T12:49:54.465Z,33.75
2019-05-13T12:50:54.504Z,28.12
2019-05-13T12:52:00.795Z,28.12
2019-05-13T12:52:55.451Z,33.75
2019-05-13T12:53:54.436Z,39.38
2019-05-13T12:54:54.430Z,45.00
2019-05-13T12:55:56.855Z,50.62
2019-05-13T12:56:54.383Z,50.62
2019-05-13T12:57:54.410Z,50.62
2019-05-13T12:58:54.398Z,50.62